sensor_id;sensor_type;location;lat;lon;timestamp;pressure;altitude;pressure_sealevel;temperature
75658;BMP280;64255;49.892;17.884;2023-02-28T00:01:28;99846.34;;;-1.64
75658;BMP280;64255;49.892;17.884;2023-02-28T00:03:55;99839.81;;;-1.54
75658;BMP280;64255;49.892;17.884;2023-02-28T00:06:23;99843.63;;;-1.51
75658;BMP280;64255;49.892;17.884;2023-02-28T00:08:51;99840.13;;;-1.40
75658;BMP280;64255;49.892;17.884;2023-02-28T00:11:18;99850.66;;;-1.20
75658;BMP280;64255;49.892;17.884;2023-02-28T00:13:46;99853.53;;;-1.45
75658;BMP280;64255;49.892;17.884;2023-02-28T00:16:20;99848.00;;;-1.40
75658;BMP280;64255;49.892;17.884;2023-02-28T00:18:48;99852.91;;;-1.38
75658;BMP280;64255;49.892;17.884;2023-02-28T00:21:18;99856.56;;;-1.43
75658;BMP280;64255;49.892;17.884;2023-02-28T00:23:46;99858.97;;;-1.54
75658;BMP280;64255;49.892;17.884;2023-02-28T00:26:14;99853.78;;;-1.50
75658;BMP280;64255;49.892;17.884;2023-02-28T00:28:41;99861.91;;;-1.39
75658;BMP280;64255;49.892;17.884;2023-02-28T00:31:08;99860.22;;;-1.47
75658;BMP280;64255;49.892;17.884;2023-02-28T00:33:35;99862.50;;;-1.46
75658;BMP280;64255;49.892;17.884;2023-02-28T00:36:09;99857.41;;;-1.39
75658;BMP280;64255;49.892;17.884;2023-02-28T00:38:38;99852.56;;;-1.36
75658;BMP280;64255;49.892;17.884;2023-02-28T00:41:07;99848.69;;;-1.43
75658;BMP280;64255;49.892;17.884;2023-02-28T00:43:38;99856.97;;;-1.41
75658;BMP280;64255;49.892;17.884;2023-02-28T00:46:07;99856.16;;;-1.45
75658;BMP280;64255;49.892;17.884;2023-02-28T00:48:34;99853.53;;;-1.45
75658;BMP280;64255;49.892;17.884;2023-02-28T00:51:02;99857.41;;;-1.39
75658;BMP280;64255;49.892;17.884;2023-02-28T00:53:30;99857.41;;;-1.39
75658;BMP280;64255;49.892;17.884;2023-02-28T00:55:57;99861.91;;;-1.39
75658;BMP280;64255;49.892;17.884;2023-02-28T00:58:25;99862.16;;;-1.44
75658;BMP280;64255;49.892;17.884;2023-02-28T01:00:52;99859.03;;;-1.50
75658;BMP280;64255;49.892;17.884;2023-02-28T01:03:20;99856.97;;;-1.41
75658;BMP280;64255;49.892;17.884;2023-02-28T01:05:47;99850.63;;;-1.40
75658;BMP280;64255;49.892;17.884;2023-02-28T01:08:14;99858.38;;;-1.47
75658;BMP280;64255;49.892;17.884;2023-02-28T01:10:42;99844.13;;;-1.46
75658;BMP280;64255;49.892;17.884;2023-02-28T01:13:11;99849.44;;;-1.42
75658;BMP280;64255;49.892;17.884;2023-02-28T01:15:48;99845.22;;;-1.47
75658;BMP280;64255;49.892;17.884;2023-02-28T01:18:15;99840.66;;;-1.50
75658;BMP280;64255;49.892;17.884;2023-02-28T01:20:43;99843.34;;;-1.46
75658;BMP280;64255;49.892;17.884;2023-02-28T01:23:10;99847.44;;;-1.49
75658;BMP280;64255;49.892;17.884;2023-02-28T01:25:38;99841.75;;;-1.51
75658;BMP280;64255;49.892;17.884;2023-02-28T01:28:06;99846.66;;;-1.49
75658;BMP280;64255;49.892;17.884;2023-02-28T01:30:34;99844.13;;;-1.46
75658;BMP280;64255;49.892;17.884;2023-02-28T01:33:02;99833.16;;;-1.32
75658;BMP280;64255;49.892;17.884;2023-02-28T01:35:31;99842.84;;;-1.36
75658;BMP280;64255;49.892;17.884;2023-02-28T01:37:58;99840.13;;;-1.40
75658;BMP280;64255;49.892;17.884;2023-02-28T01:40:25;99843.78;;;-1.09
75658;BMP280;64255;49.892;17.884;2023-02-28T01:42:53;99844.53;;;-0.69
75658;BMP280;64255;49.892;17.884;2023-02-28T01:45:27;99836.38;;;-1.03
75658;BMP280;64255;49.892;17.884;2023-02-28T01:48:04;99836.09;;;-1.17
75658;BMP280;64255;49.892;17.884;2023-02-28T01:50:41;99837.00;;;-1.45
75658;BMP280;64255;49.892;17.884;2023-02-28T01:53:19;99832.91;;;-1.27
75658;BMP280;64255;49.892;17.884;2023-02-28T01:55:53;99834.34;;;-1.29
75658;BMP280;64255;49.892;17.884;2023-02-28T01:58:20;99836.75;;;-1.56
75658;BMP280;64255;49.892;17.884;2023-02-28T02:00:47;99838.63;;;-1.57
75658;BMP280;64255;49.892;17.884;2023-02-28T02:03:18;99841.44;;;-1.14
75658;BMP280;64255;49.892;17.884;2023-02-28T02:05:46;99846.25;;;-0.57
75658;BMP280;64255;49.892;17.884;2023-02-28T02:08:23;99841.06;;;-1.12
75658;BMP280;64255;49.892;17.884;2023-02-28T02:11:00;99833.78;;;-1.19
75658;BMP280;64255;49.892;17.884;2023-02-28T02:17:16;99840.75;;;-0.91
75658;BMP280;64255;49.892;17.884;2023-02-28T02:20:27;99842.53;;;-1.15
75658;BMP280;64255;49.892;17.884;2023-02-28T02:26:42;99830.44;;;-1.71
75658;BMP280;64255;49.892;17.884;2023-02-28T02:38:55;99831.00;;;-1.46
75658;BMP280;64255;49.892;17.884;2023-02-28T02:41:53;99838.16;;;-1.94
75658;BMP280;64255;49.892;17.884;2023-02-28T02:44:43;99831.88;;;-2.06
75658;BMP280;64255;49.892;17.884;2023-02-28T02:47:18;99834.84;;;-1.40
75658;BMP280;64255;49.892;17.884;2023-02-28T02:49:55;99841.84;;;-1.12
75658;BMP280;64255;49.892;17.884;2023-02-28T02:52:38;99835.63;;;-1.39
75658;BMP280;64255;49.892;17.884;2023-02-28T02:55:09;99848.28;;;-1.45
75658;BMP280;64255;49.892;17.884;2023-02-28T02:58:12;99855.88;;;-1.24
75658;BMP280;64255;49.892;17.884;2023-02-28T03:00:43;99845.72;;;-2.37
75658;BMP280;64255;49.892;17.884;2023-02-28T03:03:15;99845.00;;;-2.06
75658;BMP280;64255;49.892;17.884;2023-02-28T03:05:49;99846.16;;;-2.76
75658;BMP280;64255;49.892;17.884;2023-02-28T03:08:17;99844.56;;;-2.52
75658;BMP280;64255;49.892;17.884;2023-02-28T03:10:51;99852.50;;;-1.56
75658;BMP280;64255;49.892;17.884;2023-02-28T03:17:01;99852.53;;;-2.20
75658;BMP280;64255;49.892;17.884;2023-02-28T03:19:58;99853.47;;;-1.96
75658;BMP280;64255;49.892;17.884;2023-02-28T03:22:39;99851.00;;;-2.50
75658;BMP280;64255;49.892;17.884;2023-02-28T03:31:36;99858.69;;;-2.98
75658;BMP280;64255;49.892;17.884;2023-02-28T03:34:23;99858.28;;;-2.31
75658;BMP280;64255;49.892;17.884;2023-02-28T03:36:57;99851.94;;;-3.61
75658;BMP280;64255;49.892;17.884;2023-02-28T03:39:41;99863.47;;;-3.99
75658;BMP280;64255;49.892;17.884;2023-02-28T03:42:19;99864.81;;;-3.56
75658;BMP280;64255;49.892;17.884;2023-02-28T03:45:04;99861.50;;;-4.02
75658;BMP280;64255;49.892;17.884;2023-02-28T03:48:05;99864.28;;;-3.74
75658;BMP280;64255;49.892;17.884;2023-02-28T03:50:45;99857.53;;;-4.08
75658;BMP280;64255;49.892;17.884;2023-02-28T03:53:37;99854.16;;;-3.26
75658;BMP280;64255;49.892;17.884;2023-02-28T04:01:49;99856.63;;;-3.91
75658;BMP280;64255;49.892;17.884;2023-02-28T04:04:18;99865.25;;;-3.66
75658;BMP280;64255;49.892;17.884;2023-02-28T04:06:45;99854.91;;;-3.25
75658;BMP280;64255;49.892;17.884;2023-02-28T04:09:16;99862.16;;;-3.81
75658;BMP280;64255;49.892;17.884;2023-02-28T04:11:53;99860.91;;;-3.74
75658;BMP280;64255;49.892;17.884;2023-02-28T04:14:21;99862.09;;;-4.18
75658;BMP280;64255;49.892;17.884;2023-02-28T04:16:48;99864.97;;;-4.32
75658;BMP280;64255;49.892;17.884;2023-02-28T04:19:15;99860.13;;;-2.59
75658;BMP280;64255;49.892;17.884;2023-02-28T04:21:51;99876.22;;;-2.33
75658;BMP280;64255;49.892;17.884;2023-02-28T04:24:26;99867.97;;;-3.00
75658;BMP280;64255;49.892;17.884;2023-02-28T04:26:56;99875.38;;;-2.90
75658;BMP280;64255;49.892;17.884;2023-02-28T04:29:30;99880.31;;;-3.01
75658;BMP280;64255;49.892;17.884;2023-02-28T04:32:00;99875.94;;;-3.09
75658;BMP280;64255;49.892;17.884;2023-02-28T04:34:31;99877.91;;;-3.06
75658;BMP280;64255;49.892;17.884;2023-02-28T04:36:58;99883.91;;;-3.30
75658;BMP280;64255;49.892;17.884;2023-02-28T04:39:26;99880.56;;;-3.18
75658;BMP280;64255;49.892;17.884;2023-02-28T04:41:53;99882.53;;;-3.28
75658;BMP280;64255;49.892;17.884;2023-02-28T04:44:22;99884.06;;;-3.27
75658;BMP280;64255;49.892;17.884;2023-02-28T04:46:49;99879.13;;;-3.28
75658;BMP280;64255;49.892;17.884;2023-02-28T04:49:17;99877.81;;;-2.97
75658;BMP280;64255;49.892;17.884;2023-02-28T04:51:44;99878.69;;;-3.18
75658;BMP280;64255;49.892;17.884;2023-02-28T04:54:11;99879.91;;;-3.15
75658;BMP280;64255;49.892;17.884;2023-02-28T04:56:39;99881.00;;;-3.29
75658;BMP280;64255;49.892;17.884;2023-02-28T04:59:06;99878.25;;;-3.08
75658;BMP280;64255;49.892;17.884;2023-02-28T05:01:34;99888.28;;;-3.34
75658;BMP280;64255;49.892;17.884;2023-02-28T05:04:04;99885.34;;;-3.45
75658;BMP280;64255;49.892;17.884;2023-02-28T05:06:32;99886.97;;;-3.41
75658;BMP280;64255;49.892;17.884;2023-02-28T05:09:00;99881.41;;;-3.76
75658;BMP280;64255;49.892;17.884;2023-02-28T05:11:32;99879.72;;;-3.81
75658;BMP280;64255;49.892;17.884;2023-02-28T05:13:59;99878.94;;;-3.94
75658;BMP280;64255;49.892;17.884;2023-02-28T05:16:26;99883.72;;;-3.96
75658;BMP280;64255;49.892;17.884;2023-02-28T05:18:54;99886.28;;;-4.08
75658;BMP280;64255;49.892;17.884;2023-02-28T05:21:32;99886.09;;;-4.03
75658;BMP280;64255;49.892;17.884;2023-02-28T05:24:04;99895.69;;;-4.07
75658;BMP280;64255;49.892;17.884;2023-02-28T05:26:37;99901.69;;;-4.07
75658;BMP280;64255;49.892;17.884;2023-02-28T05:29:06;99898.06;;;-3.81
75658;BMP280;64255;49.892;17.884;2023-02-28T05:31:34;99901.75;;;-3.82
75658;BMP280;64255;49.892;17.884;2023-02-28T05:34:02;99901.66;;;-4.19
75658;BMP280;64255;49.892;17.884;2023-02-28T05:36:29;99906.19;;;-3.95
75658;BMP280;64255;49.892;17.884;2023-02-28T05:38:56;99907.78;;;-4.03
75658;BMP280;64255;49.892;17.884;2023-02-28T05:41:24;99916.28;;;-3.72
75658;BMP280;64255;49.892;17.884;2023-02-28T05:43:51;99914.97;;;-3.78
75658;BMP280;64255;49.892;17.884;2023-02-28T05:46:18;99926.59;;;-3.55
75658;BMP280;64255;49.892;17.884;2023-02-28T05:48:47;99923.75;;;-3.95
75658;BMP280;64255;49.892;17.884;2023-02-28T05:51:15;99926.66;;;-4.09
75658;BMP280;64255;49.892;17.884;2023-02-28T05:53:43;99923.66;;;-3.99
75658;BMP280;64255;49.892;17.884;2023-02-28T05:56:11;99933.72;;;-4.10
75658;BMP280;64255;49.892;17.884;2023-02-28T05:58:38;99939.78;;;-3.85
75658;BMP280;64255;49.892;17.884;2023-02-28T06:01:38;99931.56;;;-4.08
75658;BMP280;64255;49.892;17.884;2023-02-28T06:04:09;99939.34;;;-4.20
75658;BMP280;64255;49.892;17.884;2023-02-28T06:06:37;99940.94;;;-4.28
75658;BMP280;64255;49.892;17.884;2023-02-28T06:09:05;99949.19;;;-4.17
75658;BMP280;64255;49.892;17.884;2023-02-28T06:11:33;99956.00;;;-4.25
75658;BMP280;64255;49.892;17.884;2023-02-28T06:14:01;99953.75;;;-4.14
75658;BMP280;64255;49.892;17.884;2023-02-28T06:16:30;99958.75;;;-4.21
75658;BMP280;64255;49.892;17.884;2023-02-28T06:19:02;99966.41;;;-4.16
75658;BMP280;64255;49.892;17.884;2023-02-28T06:21:30;99958.28;;;-4.02
75658;BMP280;64255;49.892;17.884;2023-02-28T06:23:58;99961.16;;;-3.95
75658;BMP280;64255;49.892;17.884;2023-02-28T06:26:26;99967.09;;;-4.28
75658;BMP280;64255;49.892;17.884;2023-02-28T06:28:54;99964.72;;;-4.21
75658;BMP280;64255;49.892;17.884;2023-02-28T06:31:22;99969.72;;;-4.07
75658;BMP280;64255;49.892;17.884;2023-02-28T06:33:49;99961.41;;;-4.09
75658;BMP280;64255;49.892;17.884;2023-02-28T06:36:17;99963.47;;;-4.15
75658;BMP280;64255;49.892;17.884;2023-02-28T06:38:45;99959.31;;;-4.16
75658;BMP280;64255;49.892;17.884;2023-02-28T06:41:12;99973.03;;;-3.98
75658;BMP280;64255;49.892;17.884;2023-02-28T06:43:41;99968.63;;;-3.72
75658;BMP280;64255;49.892;17.884;2023-02-28T06:46:12;99975.00;;;-3.73
75658;BMP280;64255;49.892;17.884;2023-02-28T06:48:41;99971.03;;;-3.79
75658;BMP280;64255;49.892;17.884;2023-02-28T06:51:14;99973.75;;;-4.09
75658;BMP280;64255;49.892;17.884;2023-02-28T06:53:42;99978.63;;;-4.08
75658;BMP280;64255;49.892;17.884;2023-02-28T06:56:15;99979.91;;;-3.93
75658;BMP280;64255;49.892;17.884;2023-02-28T06:58:50;99983.66;;;-3.82
75658;BMP280;64255;49.892;17.884;2023-02-28T07:01:17;99980.28;;;-4.03
75658;BMP280;64255;49.892;17.884;2023-02-28T07:03:46;99977.75;;;-3.91
75658;BMP280;64255;49.892;17.884;2023-02-28T07:06:13;99981.00;;;-3.94
75658;BMP280;64255;49.892;17.884;2023-02-28T07:08:41;99978.16;;;-4.01
75658;BMP280;64255;49.892;17.884;2023-02-28T07:11:08;99981.22;;;-3.99
75658;BMP280;64255;49.892;17.884;2023-02-28T07:13:36;99986.03;;;-3.89
75658;BMP280;64255;49.892;17.884;2023-02-28T07:16:06;99989.22;;;-3.83
75658;BMP280;64255;49.892;17.884;2023-02-28T07:18:36;99981.66;;;-3.85
75658;BMP280;64255;49.892;17.884;2023-02-28T07:21:06;99990.59;;;-3.64
75658;BMP280;64255;49.892;17.884;2023-02-28T07:23:34;99988.91;;;-3.36
75658;BMP280;64255;49.892;17.884;2023-02-28T07:26:02;99996.44;;;-3.34
75658;BMP280;64255;49.892;17.884;2023-02-28T07:28:28;99997.75;;;-3.53
75658;BMP280;64255;49.892;17.884;2023-02-28T07:30:56;100003.41;;;-3.50
75658;BMP280;64255;49.892;17.884;2023-02-28T07:33:23;100006.25;;;-3.43
75658;BMP280;64255;49.892;17.884;2023-02-28T07:35:50;100013.56;;;-3.49
75658;BMP280;64255;49.892;17.884;2023-02-28T07:38:18;100018.59;;;-3.44
75658;BMP280;64255;49.892;17.884;2023-02-28T07:40:45;100024.94;;;-3.32
75658;BMP280;64255;49.892;17.884;2023-02-28T07:43:13;100020.91;;;-3.30
75658;BMP280;64255;49.892;17.884;2023-02-28T07:45:39;100023.06;;;-3.32
75658;BMP280;64255;49.892;17.884;2023-02-28T07:48:07;100021.16;;;-3.23
75658;BMP280;64255;49.892;17.884;2023-02-28T07:50:34;100022.69;;;-3.09
75658;BMP280;64255;49.892;17.884;2023-02-28T07:53:01;100020.97;;;-2.80
75658;BMP280;64255;49.892;17.884;2023-02-28T07:55:28;100024.88;;;-2.99
75658;BMP280;64255;49.892;17.884;2023-02-28T07:57:57;100020.72;;;-2.87
75658;BMP280;64255;49.892;17.884;2023-02-28T08:00:24;100016.81;;;-2.69
75658;BMP280;64255;49.892;17.884;2023-02-28T08:02:52;100020.06;;;-2.47
75658;BMP280;64255;49.892;17.884;2023-02-28T08:05:18;100020.38;;;-2.36
75658;BMP280;64255;49.892;17.884;2023-02-28T08:07:46;100012.13;;;-2.10
75658;BMP280;64255;49.892;17.884;2023-02-28T08:10:13;100022.88;;;-1.87
75658;BMP280;64255;49.892;17.884;2023-02-28T08:12:40;100017.53;;;-1.46
75658;BMP280;64255;49.892;17.884;2023-02-28T08:15:08;100023.53;;;-1.13
75658;BMP280;64255;49.892;17.884;2023-02-28T08:17:35;100022.00;;;-0.82
75658;BMP280;64255;49.892;17.884;2023-02-28T08:20:03;100019.06;;;-0.61
75658;BMP280;64255;49.892;17.884;2023-02-28T08:22:30;100016.94;;;-0.71
75658;BMP280;64255;49.892;17.884;2023-02-28T08:24:57;100018.16;;;-0.13
75658;BMP280;64255;49.892;17.884;2023-02-28T08:27:25;100021.41;;;-0.01
75658;BMP280;64255;49.892;17.884;2023-02-28T08:29:52;100020.41;;;0.27
75658;BMP280;64255;49.892;17.884;2023-02-28T08:32:19;100015.75;;;0.21
75658;BMP280;64255;49.892;17.884;2023-02-28T08:34:46;100018.38;;;0.67
75658;BMP280;64255;49.892;17.884;2023-02-28T08:37:13;100017.91;;;0.38
75658;BMP280;64255;49.892;17.884;2023-02-28T08:39:41;100016.84;;;0.66
75658;BMP280;64255;49.892;17.884;2023-02-28T08:42:08;100019.47;;;0.89
75658;BMP280;64255;49.892;17.884;2023-02-28T08:44:36;100022.59;;;1.56
75658;BMP280;64255;49.892;17.884;2023-02-28T08:47:03;100020.28;;;1.20
75658;BMP280;64255;49.892;17.884;2023-02-28T08:49:29;100028.69;;;1.30
75658;BMP280;64255;49.892;17.884;2023-02-28T08:51:57;100022.06;;;1.13
75658;BMP280;64255;49.892;17.884;2023-02-28T08:54:24;100020.22;;;0.67
75658;BMP280;64255;49.892;17.884;2023-02-28T08:56:52;100027.03;;;0.68
75658;BMP280;64255;49.892;17.884;2023-02-28T08:59:19;100031.03;;;0.58
75658;BMP280;64255;49.892;17.884;2023-02-28T09:01:46;100030.28;;;1.07
75658;BMP280;64255;49.892;17.884;2023-02-28T09:04:13;100030.13;;;0.73
75658;BMP280;64255;49.892;17.884;2023-02-28T09:06:41;100027.84;;;0.95
75658;BMP280;64255;49.892;17.884;2023-02-28T09:09:08;100025.25;;;0.99
75658;BMP280;64255;49.892;17.884;2023-02-28T09:11:36;100030.06;;;0.93
75658;BMP280;64255;49.892;17.884;2023-02-28T09:14:03;100028.16;;;1.17
75658;BMP280;64255;49.892;17.884;2023-02-28T09:16:32;100033.44;;;2.71
75658;BMP280;64255;49.892;17.884;2023-02-28T09:18:59;100032.91;;;1.68
75658;BMP280;64255;49.892;17.884;2023-02-28T09:21:28;100035.88;;;1.97
75658;BMP280;64255;49.892;17.884;2023-02-28T09:23:55;100030.97;;;1.99
75658;BMP280;64255;49.892;17.884;2023-02-28T09:26:26;100030.25;;;2.44
75658;BMP280;64255;49.892;17.884;2023-02-28T09:28:55;100035.78;;;1.90
75658;BMP280;64255;49.892;17.884;2023-02-28T09:31:26;100026.06;;;1.30
75658;BMP280;64255;49.892;17.884;2023-02-28T09:33:57;100041.97;;;1.37
75658;BMP280;64255;49.892;17.884;2023-02-28T09:36:27;100031.34;;;1.30
75658;BMP280;64255;49.892;17.884;2023-02-28T09:38:55;100035.66;;;1.76
75658;BMP280;64255;49.892;17.884;2023-02-28T09:41:25;100029.22;;;1.73
75658;BMP280;64255;49.892;17.884;2023-02-28T09:43:57;100022.22;;;1.88
75658;BMP280;64255;49.892;17.884;2023-02-28T09:46:38;100020.34;;;1.58
75658;BMP280;64255;49.892;17.884;2023-02-28T09:49:19;100031.25;;;1.91
75658;BMP280;64255;49.892;17.884;2023-02-28T09:54:32;100028.59;;;1.83
75658;BMP280;64255;49.892;17.884;2023-02-28T09:57:37;100022.31;;;1.65
75658;BMP280;64255;49.892;17.884;2023-02-28T10:00:39;100020.22;;;1.47
75658;BMP280;64255;49.892;17.884;2023-02-28T10:03:40;100016.72;;;1.36
75658;BMP280;64255;49.892;17.884;2023-02-28T10:06:14;100018.53;;;1.62
75658;BMP280;64255;49.892;17.884;2023-02-28T10:09:01;100015.75;;;1.51
75658;BMP280;64255;49.892;17.884;2023-02-28T10:11:33;100020.47;;;2.48
75658;BMP280;64255;49.892;17.884;2023-02-28T10:14:10;100014.31;;;1.95
75658;BMP280;64255;49.892;17.884;2023-02-28T10:16:45;100013.22;;;2.38
75658;BMP280;64255;49.892;17.884;2023-02-28T10:19:26;100012.06;;;1.94
75658;BMP280;64255;49.892;17.884;2023-02-28T10:22:02;100016.09;;;1.80
75658;BMP280;64255;49.892;17.884;2023-02-28T10:24:35;100010.13;;;1.87
75658;BMP280;64255;49.892;17.884;2023-02-28T10:27:24;100016.78;;;1.77
75658;BMP280;64255;49.892;17.884;2023-02-28T10:29:56;100007.19;;;1.96
75658;BMP280;64255;49.892;17.884;2023-02-28T10:32:33;100012.13;;;2.01
75658;BMP280;64255;49.892;17.884;2023-02-28T10:37:39;99994.41;;;2.01
75658;BMP280;64255;49.892;17.884;2023-02-28T10:42:57;99992.69;;;2.20
75658;BMP280;64255;49.892;17.884;2023-02-28T10:45:28;99993.81;;;2.23
75658;BMP280;64255;49.892;17.884;2023-02-28T10:48:50;99982.69;;;2.47
75658;BMP280;64255;49.892;17.884;2023-02-28T10:56:02;99980.19;;;2.17
75658;BMP280;64255;49.892;17.884;2023-02-28T10:59:03;99985.69;;;2.46
75658;BMP280;64255;49.892;17.884;2023-02-28T11:01:48;99974.94;;;2.21
75658;BMP280;64255;49.892;17.884;2023-02-28T11:07:02;99963.94;;;1.74
75658;BMP280;64255;49.892;17.884;2023-02-28T11:09:39;99970.16;;;1.92
75658;BMP280;64255;49.892;17.884;2023-02-28T11:12:36;99970.25;;;2.03
75658;BMP280;64255;49.892;17.884;2023-02-28T11:15:28;99956.75;;;2.12
75658;BMP280;64255;49.892;17.884;2023-02-28T11:18:08;99960.84;;;2.06
75658;BMP280;64255;49.892;17.884;2023-02-28T11:20:42;99958.41;;;2.31
75658;BMP280;64255;49.892;17.884;2023-02-28T11:23:17;99959.50;;;2.89
75658;BMP280;64255;49.892;17.884;2023-02-28T11:25:53;99959.97;;;2.43
75658;BMP280;64255;49.892;17.884;2023-02-28T11:33:52;99955.38;;;2.29
75658;BMP280;64255;49.892;17.884;2023-02-28T11:36:31;99949.09;;;1.99
75658;BMP280;64255;49.892;17.884;2023-02-28T11:39:08;99948.38;;;2.03
75658;BMP280;64255;49.892;17.884;2023-02-28T11:44:39;99943.84;;;2.07
75658;BMP280;64255;49.892;17.884;2023-02-28T11:47:15;99941.47;;;2.43
75658;BMP280;64255;49.892;17.884;2023-02-28T11:55:44;99934.34;;;2.47
75658;BMP280;64255;49.892;17.884;2023-02-28T11:58:59;99938.78;;;2.36
75658;BMP280;64255;49.892;17.884;2023-02-28T12:05:18;99932.28;;;2.22
75658;BMP280;64255;49.892;17.884;2023-02-28T12:11:48;99933.28;;;2.07
75658;BMP280;64255;49.892;17.884;2023-02-28T12:23:51;99922.91;;;1.80
75658;BMP280;64255;49.892;17.884;2023-02-28T12:26:44;99923.72;;;1.91
75658;BMP280;64255;49.892;17.884;2023-02-28T12:32:37;99928.06;;;2.77
75658;BMP280;64255;49.892;17.884;2023-02-28T12:37:52;99912.91;;;2.59
75658;BMP280;64255;49.892;17.884;2023-02-28T12:40:23;99913.38;;;2.83
75658;BMP280;64255;49.892;17.884;2023-02-28T12:43:04;99915.88;;;3.64
75658;BMP280;64255;49.892;17.884;2023-02-28T12:46:18;99925.19;;;2.30
75658;BMP280;64255;49.892;17.884;2023-02-28T12:48:56;99922.13;;;1.79
75658;BMP280;64255;49.892;17.884;2023-02-28T12:51:25;99915.09;;;2.50
75658;BMP280;64255;49.892;17.884;2023-02-28T12:57:34;99908.97;;;1.86
75658;BMP280;64255;49.892;17.884;2023-02-28T13:00:19;99909.47;;;1.99
75658;BMP280;64255;49.892;17.884;2023-02-28T13:06:13;99906.31;;;2.31
75658;BMP280;64255;49.892;17.884;2023-02-28T13:11:44;99902.38;;;2.11
75658;BMP280;64255;49.892;17.884;2023-02-28T13:19:58;99896.19;;;1.89
75658;BMP280;64255;49.892;17.884;2023-02-28T13:27:52;99901.94;;;2.01
75658;BMP280;64255;49.892;17.884;2023-02-28T13:33:33;99895.75;;;1.83
75658;BMP280;64255;49.892;17.884;2023-02-28T13:38:48;99892.28;;;1.75
75658;BMP280;64255;49.892;17.884;2023-02-28T13:41:43;99890.56;;;2.53
75658;BMP280;64255;49.892;17.884;2023-02-28T13:51:52;99874.44;;;2.10
75658;BMP280;64255;49.892;17.884;2023-02-28T14:06:23;99870.56;;;2.52
75658;BMP280;64255;49.892;17.884;2023-02-28T14:11:41;99869.84;;;2.03
75658;BMP280;64255;49.892;17.884;2023-02-28T14:17:08;99860.81;;;2.08
75658;BMP280;64255;49.892;17.884;2023-02-28T14:19:44;99858.59;;;2.13
75658;BMP280;64255;49.892;17.884;2023-02-28T14:22:41;99855.75;;;2.33
75658;BMP280;64255;49.892;17.884;2023-02-28T14:26:10;99865.97;;;1.86
75658;BMP280;64255;49.892;17.884;2023-02-28T14:29:07;99853.16;;;1.88
75658;BMP280;64255;49.892;17.884;2023-02-28T14:31:58;99859.69;;;2.64
75658;BMP280;64255;49.892;17.884;2023-02-28T14:37:38;99855.00;;;2.40
75658;BMP280;64255;49.892;17.884;2023-02-28T14:40:31;99851.44;;;2.88
75658;BMP280;64255;49.892;17.884;2023-02-28T14:43:05;99857.38;;;2.59
75658;BMP280;64255;49.892;17.884;2023-02-28T14:45:36;99853.03;;;2.29
75658;BMP280;64255;49.892;17.884;2023-02-28T14:48:09;99847.19;;;2.72
75658;BMP280;64255;49.892;17.884;2023-02-28T14:50:37;99860.28;;;2.40
75658;BMP280;64255;49.892;17.884;2023-02-28T14:53:18;99845.25;;;2.51
75658;BMP280;64255;49.892;17.884;2023-02-28T14:55:49;99841.50;;;2.59
75658;BMP280;64255;49.892;17.884;2023-02-28T14:58:34;99846.63;;;2.30
75658;BMP280;64255;49.892;17.884;2023-02-28T15:01:03;99841.56;;;2.77
75658;BMP280;64255;49.892;17.884;2023-02-28T15:03:35;99851.78;;;2.09
75658;BMP280;64255;49.892;17.884;2023-02-28T15:06:16;99851.69;;;1.49
75658;BMP280;64255;49.892;17.884;2023-02-28T15:08:44;99852.19;;;2.14
75658;BMP280;64255;49.892;17.884;2023-02-28T15:11:19;99845.88;;;2.26
75658;BMP280;64255;49.892;17.884;2023-02-28T15:13:54;99847.84;;;2.44
75658;BMP280;64255;49.892;17.884;2023-02-28T15:16:36;99850.28;;;2.11
75658;BMP280;64255;49.892;17.884;2023-02-28T15:19:28;99852.41;;;1.91
75658;BMP280;64255;49.892;17.884;2023-02-28T15:22:12;99849.97;;;2.16
75658;BMP280;64255;49.892;17.884;2023-02-28T15:24:51;99845.69;;;2.01
75658;BMP280;64255;49.892;17.884;2023-02-28T15:27:27;99856.47;;;2.33
75658;BMP280;64255;49.892;17.884;2023-02-28T15:30:07;99847.34;;;2.24
75658;BMP280;64255;49.892;17.884;2023-02-28T15:32:38;99847.69;;;2.15
75658;BMP280;64255;49.892;17.884;2023-02-28T15:38:00;99843.38;;;1.92
75658;BMP280;64255;49.892;17.884;2023-02-28T15:40:32;99850.94;;;1.97
75658;BMP280;64255;49.892;17.884;2023-02-28T15:43:18;99851.28;;;1.47
75658;BMP280;64255;49.892;17.884;2023-02-28T15:51:24;99850.97;;;1.15
75658;BMP280;64255;49.892;17.884;2023-02-28T15:54:01;99841.66;;;1.25
75658;BMP280;64255;49.892;17.884;2023-02-28T15:56:39;99847.38;;;1.30
75658;BMP280;64255;49.892;17.884;2023-02-28T15:59:29;99853.50;;;0.73
75658;BMP280;64255;49.892;17.884;2023-02-28T16:02:18;99852.94;;;0.87
75658;BMP280;64255;49.892;17.884;2023-02-28T16:07:41;99851.84;;;0.61
75658;BMP280;64255;49.892;17.884;2023-02-28T16:10:12;99856.88;;;1.01
75658;BMP280;64255;49.892;17.884;2023-02-28T16:12:41;99855.19;;;0.89
75658;BMP280;64255;49.892;17.884;2023-02-28T16:17:47;99854.00;;;0.83
75658;BMP280;64255;49.892;17.884;2023-02-28T16:20:22;99852.72;;;0.15
75658;BMP280;64255;49.892;17.884;2023-02-28T16:22:50;99850.44;;;0.41
75658;BMP280;64255;49.892;17.884;2023-02-28T16:25:23;99852.63;;;0.35
75658;BMP280;64255;49.892;17.884;2023-02-28T16:27:55;99850.56;;;0.79
75658;BMP280;64255;49.892;17.884;2023-02-28T16:30:28;99855.19;;;0.89
75658;BMP280;64255;49.892;17.884;2023-02-28T16:32:56;99857.47;;;0.90
75658;BMP280;64255;49.892;17.884;2023-02-28T16:35:24;99860.00;;;1.14
75658;BMP280;64255;49.892;17.884;2023-02-28T16:37:52;99862.44;;;0.65
75658;BMP280;64255;49.892;17.884;2023-02-28T16:40:24;99855.34;;;0.69
75658;BMP280;64255;49.892;17.884;2023-02-28T16:42:55;99865.66;;;-0.42
75658;BMP280;64255;49.892;17.884;2023-02-28T16:45:26;99859.72;;;-0.39
75658;BMP280;64255;49.892;17.884;2023-02-28T16:47:55;99862.75;;;-0.17
75658;BMP280;64255;49.892;17.884;2023-02-28T16:50:27;99876.06;;;0.44
75658;BMP280;64255;49.892;17.884;2023-02-28T16:52:55;99869.91;;;0.36
75658;BMP280;64255;49.892;17.884;2023-02-28T16:55:25;99870.47;;;-0.05
75658;BMP280;64255;49.892;17.884;2023-02-28T16:58:00;99869.91;;;0.06
75658;BMP280;64255;49.892;17.884;2023-02-28T17:00:30;99884.66;;;0.95
75658;BMP280;64255;49.892;17.884;2023-02-28T17:02:58;99876.91;;;0.79
75658;BMP280;64255;49.892;17.884;2023-02-28T17:05:29;99880.31;;;0.79
75658;BMP280;64255;49.892;17.884;2023-02-28T17:08:00;99887.00;;;0.73